Time;durP1;ratioP1;P1;durP2;ratioP2;P2;SDS_P1;SDS_P2;PMS_P1;PMS_P2;Temp;Humidity;BMP_temperature;BMP_pressure;BME280_temperature;BME280_humidity;BME280_pressure;Samples;Min_cycle;Max_cycle;Signal;HPM_P1;HPM_P2
2021/10/08 05:26:49;;;;;;;4.88;3.15;;;;;;;;;;5069007;23;20106;-62
2021/10/08 05:29:15;;;;;;;7.68;3.40;;;;;;;;;;4936859;29;20099;-64
2021/10/08 05:31:41;;;;;;;4.95;2.90;;;;;;;;;;4936823;29;20043;-64
2021/10/08 05:34:07;;;;;;;5.85;2.90;;;;;;;;;;4918326;29;20386;-67
2021/10/08 05:36:34;;;;;;;5.78;2.55;;;;;;;;;;4919541;29;20035;-67
2021/10/08 05:39:01;;;;;;;4.38;2.65;;;;;;;;;;4933874;29;20024;-64
2021/10/08 05:41:27;;;;;;;6.10;2.83;;;;;;;;;;4934531;29;20028;-64
2021/10/08 05:43:53;;;;;;;5.97;3.00;;;;;;;;;;4935267;29;20030;-63
2021/10/08 05:46:19;;;;;;;7.05;3.03;;;;;;;;;;4936101;29;20399;-67
2021/10/08 05:48:45;;;;;;;5.97;3.20;;;;;;;;;;4934739;29;20439;-70
2021/10/08 05:51:11;;;;;;;6.78;2.97;;;;;;;;;;4935264;29;20034;-71
2021/10/08 05:53:37;;;;;;;6.05;2.90;;;;;;;;;;4935786;29;20031;-67
2021/10/08 05:56:03;;;;;;;6.32;2.92;;;;;;;;;;4917260;29;20050;-68
2021/10/08 05:58:29;;;;;;;5.78;2.70;;;;;;;;;;4917191;29;20027;-65
2021/10/08 06:00:55;;;;;;;5.22;2.95;;;;;;;;;;4917021;29;20040;-67
2021/10/08 06:03:21;;;;;;;6.15;3.20;;;;;;;;;;4916940;29;20030;-68
2021/10/08 06:05:47;;;;;;;6.30;2.53;;;;;;;;;;4900087;29;20036;-69
2021/10/08 06:08:13;;;;;;;7.07;2.97;;;;;;;;;;4916760;29;20036;-65
2021/10/08 06:10:40;;;;;;;5.43;3.13;;;;;;;;;;4916868;29;20051;-64
2021/10/08 06:13:06;;;;;;;6.15;2.72;;;;;;;;;;4916765;29;20059;-67
2021/10/08 06:15:32;;;;;;;5.32;2.58;;;;;;;;;;4923109;29;20514;-63
2021/10/08 06:17:58;;;;;;;5.78;3.00;;;;;;;;;;4935646;29;20020;-66
2021/10/08 06:20:26;;;;;;;4.30;3.10;;;;;;;;;;4935408;29;20028;-70
2021/10/08 06:22:53;;;;;;;8.35;3.05;;;;;;;;;;4934534;29;20538;-61
2021/10/08 06:25:20;;;;;;;5.18;2.80;;;;;;;;;;4935043;29;20048;-66
2021/10/08 06:27:51;;;;;;;5.28;3.05;;;;;;;;;;4935611;29;20037;-63
2021/10/08 06:30:18;;;;;;;4.72;2.42;;;;;;;;;;4935203;29;20062;-67
2021/10/08 06:32:44;;;;;;;7.13;3.20;;;;;;;;;;4934048;29;20072;-64
2021/10/08 06:35:10;;;;;;;5.07;3.03;;;;;;;;;;4934066;29;20031;-66
2021/10/08 06:37:36;;;;;;;6.28;3.47;;;;;;;;;;4933996;29;20036;-62
2021/10/08 06:40:03;;;;;;;5.88;3.20;;;;;;;;;;4934467;29;20028;-68
2021/10/08 06:42:29;;;;;;;6.95;3.33;;;;;;;;;;4933887;29;20079;-66
2021/10/08 06:44:56;;;;;;;6.82;3.40;;;;;;;;;;4934331;29;20035;-68
2021/10/08 06:47:23;;;;;;;7.80;3.22;;;;;;;;;;4933500;29;20078;-62
2021/10/08 06:49:49;;;;;;;6.22;2.90;;;;;;;;;;4934404;29;20032;-65
2021/10/08 06:52:15;;;;;;;4.97;2.97;;;;;;;;;;4935053;29;20031;-68
2021/10/08 06:54:41;;;;;;;7.28;2.90;;;;;;;;;;4935023;29;20114;-67
2021/10/08 06:57:07;;;;;;;6.82;3.15;;;;;;;;;;4934593;29;20035;-69
2021/10/08 06:59:34;;;;;;;5.80;3.30;;;;;;;;;;4931504;29;20032;-65
2021/10/08 07:02:00;;;;;;;6.63;3.08;;;;;;;;;;4934027;29;20039;-69
2021/10/08 07:04:26;;;;;;;7.80;3.33;;;;;;;;;;4933236;29;20028;-63
2021/10/08 07:06:52;;;;;;;7.40;3.42;;;;;;;;;;4934802;29;20499;-67
2021/10/08 07:09:18;;;;;;;8.25;3.17;;;;;;;;;;4934777;29;20035;-67
2021/10/08 07:11:44;;;;;;;7.32;3.10;;;;;;;;;;4934754;29;20099;-69
2021/10/08 07:14:11;;;;;;;6.82;3.13;;;;;;;;;;4934862;29;20451;-67
2021/10/08 07:16:37;;;;;;;7.97;3.10;;;;;;;;;;4934725;29;20391;-67
2021/10/08 07:19:13;;;;;;;6.85;2.88;;;;;;;;;;4935048;29;20026;-70
2021/10/08 07:21:41;;;;;;;4.07;2.63;;;;;;;;;;4934658;29;20028;-66
2021/10/08 07:24:08;;;;;;;6.45;3.00;;;;;;;;;;4933946;29;20539;-68
2021/10/08 07:26:34;;;;;;;6.13;2.90;;;;;;;;;;4934319;29;20096;-69
2021/10/08 07:29:00;;;;;;;6.20;3.10;;;;;;;;;;4934609;29;20031;-68
2021/10/08 07:31:26;;;;;;;5.63;3.00;;;;;;;;;;4933708;29;20040;-63
2021/10/08 07:33:52;;;;;;;5.55;2.70;;;;;;;;;;4933999;29;20031;-63
2021/10/08 07:36:18;;;;;;;7.22;3.10;;;;;;;;;;4917068;29;20032;-63
2021/10/08 07:38:44;;;;;;;5.25;3.03;;;;;;;;;;4934007;29;20093;-67
2021/10/08 07:41:11;;;;;;;8.50;3.00;;;;;;;;;;4934304;29;20495;-65
2021/10/08 07:43:37;;;;;;;5.68;3.20;;;;;;;;;;4934109;29;20027;-64
2021/10/08 07:46:04;;;;;;;5.38;3.38;;;;;;;;;;4933698;29;20071;-64
2021/10/08 07:48:30;;;;;;;6.55;3.03;;;;;;;;;;4934191;29;20030;-61
2021/10/08 07:50:56;;;;;;;8.30;3.35;;;;;;;;;;4933992;29;20114;-63
2021/10/08 07:53:23;;;;;;;8.52;3.15;;;;;;;;;;4933800;29;20031;-63
2021/10/08 07:55:49;;;;;;;5.88;3.03;;;;;;;;;;4933529;29;20093;-64
2021/10/08 07:58:15;;;;;;;7.22;3.20;;;;;;;;;;4933874;29;20036;-61
2021/10/08 08:00:41;;;;;;;8.32;3.20;;;;;;;;;;4934029;29;20055;-61
2021/10/08 08:03:07;;;;;;;5.57;3.33;;;;;;;;;;4933973;29;20361;-60
2021/10/08 08:05:33;;;;;;;5.65;3.00;;;;;;;;;;4934435;29;20494;-61
2021/10/08 08:07:59;;;;;;;6.00;2.97;;;;;;;;;;4933804;29;20480;-64
2021/10/08 08:10:25;;;;;;;7.78;2.85;;;;;;;;;;4933445;29;20082;-62
2021/10/08 08:12:51;;;;;;;7.05;3.50;;;;;;;;;;4933240;29;20023;-61
2021/10/08 08:15:18;;;;;;;3.85;2.35;;;;;;;;;;4916527;29;20031;-61
2021/10/08 08:17:44;;;;;;;8.75;3.55;;;;;;;;;;4933219;29;20488;-62
2021/10/08 08:20:11;;;;;;;6.63;3.20;;;;;;;;;;4933530;29;20483;-62
2021/10/08 08:22:37;;;;;;;9.48;3.22;;;;;;;;;;4933353;29;20091;-62
2021/10/08 08:25:04;;;;;;;5.18;2.88;;;;;;;;;;4933105;29;20038;-61
2021/10/08 08:27:31;;;;;;;5.13;3.13;;;;;;;;;;4933583;29;20028;-60
2021/10/08 08:29:57;;;;;;;5.45;2.60;;;;;;;;;;4932730;29;20407;-60
2021/10/08 08:32:24;;;;;;;5.25;2.33;;;;;;;;;;4931805;29;20027;-63
2021/10/08 08:34:50;;;;;;;6.03;3.05;;;;;;;;;;4932814;29;20495;-63
2021/10/08 08:37:16;;;;;;;5.25;2.78;;;;;;;;;;4933396;29;20028;-62
2021/10/08 08:39:45;;;;;;;5.45;2.30;;;;;;;;;;4932865;29;20024;-61
2021/10/08 08:42:11;;;;;;;5.53;2.22;;;;;;;;;;4916422;29;20751;-64
2021/10/08 08:44:37;;;;;;;4.70;2.50;;;;;;;;;;4934288;29;20142;-63
2021/10/08 08:47:03;;;;;;;9.90;3.47;;;;;;;;;;4936179;29;20034;-62
2021/10/08 08:49:29;;;;;;;5.38;3.08;;;;;;;;;;4936277;29;20052;-61
2021/10/08 08:51:55;;;;;;;6.85;2.70;;;;;;;;;;4918998;29;20064;-60
2021/10/08 08:54:22;;;;;;;5.47;2.50;;;;;;;;;;4936841;29;20470;-61
2021/10/08 08:56:48;;;;;;;6.07;2.75;;;;;;;;;;4937501;29;20040;-60
2021/10/08 08:59:14;;;;;;;4.82;2.63;;;;;;;;;;4937152;29;20153;-62
2021/10/08 09:02:10;;;;;;;7.10;2.75;;;;;;;;;;4936953;29;20031;-64
2021/10/08 09:04:36;;;;;;;6.28;2.70;;;;;;;;;;4859944;29;20090;-63
2021/10/08 09:07:02;;;;;;;5.38;2.95;;;;;;;;;;4859712;29;20493;-62
2021/10/08 09:09:29;;;;;;;9.65;3.03;;;;;;;;;;4859941;29;20097;-61
2021/10/08 09:11:56;;;;;;;7.43;2.92;;;;;;;;;;4859724;29;20558;-63
2021/10/08 09:14:31;;;;;;;7.55;2.53;;;;;;;;;;4861616;29;20507;-64
2021/10/08 09:17:10;;;;;;;5.95;3.00;;;;;;;;;;4856190;29;20155;-62
2021/10/08 09:19:55;;;;;;;5.45;2.90;;;;;;;;;;4861807;29;20033;-61
2021/10/08 09:22:21;;;;;;;7.95;3.40;;;;;;;;;;4859538;29;20045;-63
2021/10/08 09:24:47;;;;;;;6.82;2.70;;;;;;;;;;4859167;29;20064;-63
2021/10/08 09:27:14;;;;;;;6.15;2.92;;;;;;;;;;4859014;29;20053;-62
2021/10/08 09:29:51;;;;;;;6.80;2.63;;;;;;;;;;4859509;29;20112;-63
2021/10/08 09:32:18;;;;;;;7.78;3.10;;;;;;;;;;4859545;29;20029;-61
2021/10/08 09:34:44;;;;;;;8.85;3.00;;;;;;;;;;4874521;29;20053;-62
2021/10/08 09:37:12;;;;;;;7.00;3.28;;;;;;;;;;4858897;29;20112;-60
2021/10/08 09:39:39;;;;;;;6.05;2.55;;;;;;;;;;4858791;29;20474;-61
2021/10/08 09:42:11;;;;;;;4.85;2.63;;;;;;;;;;4933095;29;20043;-61
2021/10/08 09:44:48;;;;;;;6.18;2.97;;;;;;;;;;4936870;29;20058;-61
2021/10/08 09:47:18;;;;;;;5.82;2.67;;;;;;;;;;4936699;29;20032;-61
2021/10/08 09:49:46;;;;;;;7.07;2.95;;;;;;;;;;4936606;29;20039;-61
2021/10/08 09:52:23;;;;;;;5.60;2.78;;;;;;;;;;4936128;29;20043;-64
2021/10/08 09:54:50;;;;;;;11.43;2.60;;;;;;;;;;4936184;29;20078;-63
2021/10/08 09:57:18;;;;;;;7.47;3.00;;;;;;;;;;4936472;29;20059;-63
2021/10/08 09:59:46;;;;;;;10.13;2.55;;;;;;;;;;4936543;29;20415;-64
2021/10/08 10:02:13;;;;;;;9.25;3.10;;;;;;;;;;4936197;29;20090;-63
2021/10/08 10:04:49;;;;;;;7.85;3.55;;;;;;;;;;4936250;29;20156;-62
2021/10/08 10:07:17;;;;;;;7.05;3.00;;;;;;;;;;4936034;29;20031;-63
2021/10/08 10:09:43;;;;;;;5.20;2.60;;;;;;;;;;4935849;29;20051;-63
2021/10/08 10:12:10;;;;;;;6.88;2.75;;;;;;;;;;4936063;29;20106;-63
2021/10/08 10:14:36;;;;;;;8.15;3.15;;;;;;;;;;4935727;29;20055;-62
2021/10/08 10:17:03;;;;;;;8.85;4.32;;;;;;;;;;4935607;29;20032;-65
2021/10/08 10:19:32;;;;;;;14.25;4.10;;;;;;;;;;4935622;29;20027;-64
2021/10/08 10:22:00;;;;;;;7.15;3.47;;;;;;;;;;4935630;29;20028;-65
2021/10/08 10:24:26;;;;;;;11.00;3.42;;;;;;;;;;4935955;29;20383;-62
2021/10/08 10:26:54;;;;;;;7.75;2.97;;;;;;;;;;4933889;29;20046;-61
2021/10/08 10:29:20;;;;;;;11.45;3.60;;;;;;;;;;4944058;29;20027;-65
2021/10/08 10:31:47;;;;;;;13.40;3.70;;;;;;;;;;4954384;29;20050;-65
2021/10/08 10:34:14;;;;;;;10.82;3.72;;;;;;;;;;4954660;29;20043;-64
2021/10/08 10:36:41;;;;;;;10.85;3.90;;;;;;;;;;4954725;28;20027;-64
2021/10/08 10:39:13;;;;;;;14.45;4.05;;;;;;;;;;4954536;29;20388;-63
2021/10/08 10:41:46;;;;;;;10.55;3.75;;;;;;;;;;4954730;29;20102;-64
2021/10/08 10:44:12;;;;;;;14.65;4.30;;;;;;;;;;4953898;29;20031;-65
2021/10/08 10:52:03;;;;;;;6.07;3.33;;;;;;;;;;4875606;29;20045;-63
2021/10/08 10:54:38;;;;;;;8.27;3.55;;;;;;;;;;4875510;29;20045;-63
2021/10/08 10:57:05;;;;;;;11.73;4.03;;;;;;;;;;4875733;29;20076;-63
2021/10/08 10:59:32;;;;;;;12.30;4.03;;;;;;;;;;4875883;29;20047;-65
2021/10/08 11:02:06;;;;;;;10.02;4.07;;;;;;;;;;4876003;29;20025;-65
2021/10/08 11:04:33;;;;;;;14.30;4.43;;;;;;;;;;4875801;29;20033;-65
2021/10/08 11:07:05;;;;;;;9.68;3.53;;;;;;;;;;4875167;29;20080;-65
2021/10/08 11:09:31;;;;;;;13.32;3.67;;;;;;;;;;4876085;29;20041;-64
2021/10/08 11:12:16;;;;;;;9.30;3.50;;;;;;;;;;4875688;29;20083;-62
2021/10/08 11:14:42;;;;;;;11.40;3.80;;;;;;;;;;4876254;29;20434;-63
2021/10/08 11:17:28;;;;;;;10.18;4.15;;;;;;;;;;4875934;29;20041;-63
2021/10/08 11:19:54;;;;;;;11.25;4.13;;;;;;;;;;4876358;29;20184;-61
2021/10/08 11:22:40;;;;;;;11.75;3.97;;;;;;;;;;4860931;29;20064;-62
2021/10/08 11:25:06;;;;;;;11.32;3.90;;;;;;;;;;4837821;29;20629;-62
2021/10/08 11:27:33;;;;;;;9.57;4.20;;;;;;;;;;4838911;29;20068;-63
2021/10/08 11:30:04;;;;;;;11.70;4.57;;;;;;;;;;4904392;29;20062;-66
2021/10/08 11:32:31;;;;;;;11.65;3.40;;;;;;;;;;4915339;29;20024;-65
2021/10/08 11:34:57;;;;;;;12.27;3.58;;;;;;;;;;4898193;29;20460;-64
2021/10/08 11:37:23;;;;;;;11.48;3.58;;;;;;;;;;4915424;29;20036;-64
2021/10/08 11:39:50;;;;;;;14.70;4.38;;;;;;;;;;4915542;29;20035;-64
2021/10/08 11:42:18;;;;;;;12.68;5.43;;;;;;;;;;4915093;29;20047;-65
2021/10/08 11:50:29;;;;;;;;;;;;;;;;;;4915375;29;20035;-64
2021/10/08 11:52:41;;;;;;;12.75;5.32;;;;;;;;;;4921310;29;19930;-66
2021/10/08 11:55:08;;;;;;;27.33;5.82;;;;;;;;;;4934255;29;20067;-63
2021/10/08 11:57:47;;;;;;;19.45;6.68;;;;;;;;;;4934226;29;20111;-65
2021/10/08 12:00:13;;;;;;;14.05;5.18;;;;;;;;;;4934474;29;20027;-65
2021/10/08 12:02:39;;;;;;;15.80;4.90;;;;;;;;;;4934330;29;20039;-65
2021/10/08 12:05:07;;;;;;;14.05;5.13;;;;;;;;;;4934592;29;20030;-63
2021/10/08 12:07:37;;;;;;;16.38;5.03;;;;;;;;;;4934238;29;20062;-63
2021/10/08 12:10:07;;;;;;;17.40;4.63;;;;;;;;;;4934544;29;20039;-63
2021/10/08 12:12:33;;;;;;;15.90;5.05;;;;;;;;;;4934344;29;20027;-63
2021/10/08 12:14:59;;;;;;;13.52;5.00;;;;;;;;;;4934142;29;20031;-62
2021/10/08 12:17:25;;;;;;;17.45;5.00;;;;;;;;;;4916949;29;20031;-63
2021/10/08 12:19:51;;;;;;;13.77;4.90;;;;;;;;;;4934019;29;20059;-63
2021/10/08 12:22:22;;;;;;;13.98;5.10;;;;;;;;;;4934061;29;20024;-62
2021/10/08 12:24:49;;;;;;;14.68;4.45;;;;;;;;;;4930367;29;20032;-64
2021/10/08 12:27:15;;;;;;;16.85;5.25;;;;;;;;;;4933151;29;20094;-63
2021/10/08 12:29:42;;;;;;;13.55;4.40;;;;;;;;;;4933457;29;20035;-62
2021/10/08 12:32:16;;;;;;;15.43;5.50;;;;;;;;;;4933596;29;20090;-64
2021/10/08 12:34:46;;;;;;;19.10;5.68;;;;;;;;;;4933392;29;20047;-63
2021/10/08 12:37:14;;;;;;;18.70;5.43;;;;;;;;;;4933082;29;20031;-63
2021/10/08 12:39:57;;;;;;;16.80;4.60;;;;;;;;;;4932750;29;20038;-63
2021/10/08 12:42:27;;;;;;;13.50;4.43;;;;;;;;;;4931924;29;20053;-67
2021/10/08 12:44:59;;;;;;;14.73;4.03;;;;;;;;;;4932853;29;20055;-64
2021/10/08 12:47:27;;;;;;;15.70;4.68;;;;;;;;;;4933196;29;20039;-67
2021/10/08 12:50:05;;;;;;;14.18;4.63;;;;;;;;;;4933295;29;20046;-64
2021/10/08 12:52:36;;;;;;;17.13;4.72;;;;;;;;;;4931758;29;20038;-62
2021/10/08 12:55:13;;;;;;;12.85;4.22;;;;;;;;;;4931710;29;20043;-62
2021/10/08 12:58:02;;;;;;;13.43;4.28;;;;;;;;;;4931107;29;20035;-64
2021/10/08 13:00:31;;;;;;;5.85;2.90;;;;;;;;;;4932266;29;20152;-65
2021/10/08 13:02:57;;;;;;;21.50;5.15;;;;;;;;;;4931414;29;20111;-62
2021/10/08 13:05:24;;;;;;;14.02;3.67;;;;;;;;;;4932235;29;20028;-63
2021/10/08 13:08:08;;;;;;;19.90;4.72;;;;;;;;;;4932123;29;20032;-62
2021/10/08 13:10:34;;;;;;;19.23;5.57;;;;;;;;;;4931957;29;20032;-65
2021/10/08 13:13:01;;;;;;;13.27;4.55;;;;;;;;;;4932219;29;20043;-62
2021/10/08 13:15:28;;;;;;;17.38;4.50;;;;;;;;;;4932851;29;20115;-62
2021/10/08 13:18:01;;;;;;;16.20;5.20;;;;;;;;;;4932830;29;20035;-65
2021/10/08 13:20:27;;;;;;;17.67;4.78;;;;;;;;;;4932761;29;20527;-63
2021/10/08 13:22:53;;;;;;;16.02;5.30;;;;;;;;;;4931491;29;20060;-64
2021/10/08 13:25:20;;;;;;;20.38;5.63;;;;;;;;;;4931093;29;20068;-66
2021/10/08 13:27:46;;;;;;;17.73;5.70;;;;;;;;;;4932401;29;20044;-64
2021/10/08 13:30:12;;;;;;;15.25;5.20;;;;;;;;;;4932881;29;20024;-64
2021/10/08 13:32:38;;;;;;;19.17;5.65;;;;;;;;;;4936518;29;20028;-65
2021/10/08 13:35:04;;;;;;;20.77;5.57;;;;;;;;;;4935011;29;20035;-63
2021/10/08 13:37:30;;;;;;;19.08;6.57;;;;;;;;;;4935187;29;20031;-61
2021/10/08 13:39:57;;;;;;;15.25;6.18;;;;;;;;;;4935548;29;20023;-60
2021/10/08 13:42:23;;;;;;;22.30;6.00;;;;;;;;;;4934243;29;20526;-63
2021/10/08 13:44:49;;;;;;;19.85;5.85;;;;;;;;;;4935901;29;20035;-64
2021/10/08 13:47:15;;;;;;;20.90;6.60;;;;;;;;;;4935212;29;20034;-63
2021/10/08 13:49:41;;;;;;;25.33;6.93;;;;;;;;;;4935480;29;20027;-63
2021/10/08 13:52:08;;;;;;;22.80;6.85;;;;;;;;;;4935363;29;20499;-62
2021/10/08 13:54:35;;;;;;;24.40;6.78;;;;;;;;;;4935837;29;20031;-60
2021/10/08 13:57:01;;;;;;;20.35;7.38;;;;;;;;;;4935736;29;20043;-61
2021/10/08 13:59:28;;;;;;;17.27;7.10;;;;;;;;;;4935952;29;20115;-64
2021/10/08 14:02:00;;;;;;;19.73;7.40;;;;;;;;;;4935789;29;20090;-62
2021/10/08 14:07:23;;;;;;;18.38;7.38;;;;;;;;;;4935970;29;20039;-64
2021/10/08 14:12:34;;;;;;;22.80;6.57;;;;;;;;;;4934858;29;20066;-63
2021/10/08 14:15:00;;;;;;;18.63;6.57;;;;;;;;;;4935266;29;20038;-62
2021/10/08 14:17:26;;;;;;;25.27;6.25;;;;;;;;;;4935117;29;20483;-62
2021/10/08 14:19:52;;;;;;;21.35;7.43;;;;;;;;;;4935479;29;20115;-62
2021/10/08 14:22:18;;;;;;;23.00;6.85;;;;;;;;;;4935560;29;20028;-61
2021/10/08 14:24:44;;;;;;;21.55;7.15;;;;;;;;;;4935305;29;20031;-62
2021/10/08 14:27:11;;;;;;;24.50;7.38;;;;;;;;;;4935035;29;20059;-63
2021/10/08 14:29:37;;;;;;;19.50;7.30;;;;;;;;;;4935502;29;20028;-60
2021/10/08 14:32:03;;;;;;;22.50;8.00;;;;;;;;;;4935170;29;20043;-62
2021/10/08 14:34:29;;;;;;;19.60;7.63;;;;;;;;;;4935298;29;20039;-62
2021/10/08 14:36:55;;;;;;;25.95;8.68;;;;;;;;;;4935023;29;20047;-64
2021/10/08 14:39:21;;;;;;;25.50;8.30;;;;;;;;;;4935122;29;20110;-65
2021/10/08 14:41:47;;;;;;;26.48;8.43;;;;;;;;;;4934295;29;20028;-65
2021/10/08 14:44:13;;;;;;;29.83;9.85;;;;;;;;;;4934799;29;20194;-63
2021/10/08 14:46:39;;;;;;;32.97;11.90;;;;;;;;;;4935036;29;20059;-62
2021/10/08 14:49:05;;;;;;;35.80;11.85;;;;;;;;;;4934745;29;20054;-64
2021/10/08 14:51:33;;;;;;;31.85;11.80;;;;;;;;;;4934928;29;20044;-65
2021/10/08 14:54:12;;;;;;;42.63;12.73;;;;;;;;;;4934860;29;20039;-63
2021/10/08 14:59:07;;;;;;;27.75;9.50;;;;;;;;;;4934740;29;20038;-64
2021/10/08 15:01:36;;;;;;;35.50;9.88;;;;;;;;;;4934777;29;20457;-64
2021/10/08 15:04:03;;;;;;;31.05;9.95;;;;;;;;;;4934739;29;20031;-65
2021/10/08 15:06:29;;;;;;;28.38;9.38;;;;;;;;;;4933753;29;20028;-63
2021/10/08 15:08:55;;;;;;;22.60;8.73;;;;;;;;;;4934004;29;20031;-64
2021/10/08 15:11:21;;;;;;;24.00;9.40;;;;;;;;;;4934354;29;20822;-64
2021/10/08 15:13:47;;;;;;;30.35;8.98;;;;;;;;;;4934793;29;20483;-63
2021/10/08 15:16:13;;;;;;;23.23;9.05;;;;;;;;;;4934810;29;20055;-66
2021/10/08 15:18:39;;;;;;;32.30;9.73;;;;;;;;;;4927857;29;20127;-65
2021/10/08 15:21:05;;;;;;;29.83;10.05;;;;;;;;;;4933587;29;20055;-62
2021/10/08 15:23:32;;;;;;;29.00;10.00;;;;;;;;;;4932945;29;20031;-63
2021/10/08 15:25:58;;;;;;;31.10;10.45;;;;;;;;;;4933214;29;20044;-65
2021/10/08 15:28:24;;;;;;;32.08;11.65;;;;;;;;;;4917024;29;20080;-64
2021/10/08 15:30:50;;;;;;;36.25;10.73;;;;;;;;;;4933888;29;20482;-64
2021/10/08 15:33:16;;;;;;;35.80;11.02;;;;;;;;;;4933558;29;20032;-63
2021/10/08 15:35:42;;;;;;;32.78;9.82;;;;;;;;;;4933456;29;20075;-64
2021/10/08 15:38:10;;;;;;;28.10;10.75;;;;;;;;;;4933026;29;20062;-64
2021/10/08 15:40:37;;;;;;;24.15;8.27;;;;;;;;;;4933664;29;20035;-65
2021/10/08 15:43:03;;;;;;;20.15;8.73;;;;;;;;;;4933290;29;20027;-63
2021/10/08 15:45:29;;;;;;;23.77;9.35;;;;;;;;;;4932367;29;20028;-65
2021/10/08 15:47:56;;;;;;;29.90;8.43;;;;;;;;;;4933398;29;20023;-65
2021/10/08 15:50:23;;;;;;;22.85;8.13;;;;;;;;;;4933412;29;20046;-63
2021/10/08 15:52:49;;;;;;;17.63;7.22;;;;;;;;;;4921391;29;20038;-62
2021/10/08 15:55:15;;;;;;;19.17;6.70;;;;;;;;;;4933216;29;20043;-65
2021/10/08 15:57:41;;;;;;;15.95;5.93;;;;;;;;;;4932162;29;20024;-63
2021/10/08 16:00:07;;;;;;;13.90;4.82;;;;;;;;;;4932274;29;20028;-64
2021/10/08 16:02:33;;;;;;;14.38;5.10;;;;;;;;;;4932613;29;20032;-63
2021/10/08 16:04:59;;;;;;;14.43;5.20;;;;;;;;;;4931962;29;20028;-63
2021/10/08 16:07:25;;;;;;;18.92;4.88;;;;;;;;;;4932617;29;20082;-62
2021/10/08 16:09:51;;;;;;;14.25;5.97;;;;;;;;;;4932759;29;20024;-63
2021/10/08 16:12:18;;;;;;;13.10;5.90;;;;;;;;;;4932070;29;20078;-63
2021/10/08 16:14:45;;;;;;;19.33;6.32;;;;;;;;;;4929617;29;20546;-64
2021/10/08 16:17:13;;;;;;;17.17;5.95;;;;;;;;;;4933885;29;20028;-63
2021/10/08 16:19:43;;;;;;;14.77;4.95;;;;;;;;;;4933543;29;20480;-63
2021/10/08 16:22:14;;;;;;;16.50;5.70;;;;;;;;;;4932948;29;20036;-64
2021/10/08 16:24:41;;;;;;;19.48;6.63;;;;;;;;;;4915091;29;20043;-63
2021/10/08 16:27:07;;;;;;;12.00;5.28;;;;;;;;;;4932538;29;20055;-63
2021/10/08 16:29:34;;;;;;;14.93;5.72;;;;;;;;;;4932365;29;20384;-63
2021/10/08 16:32:01;;;;;;;15.98;5.20;;;;;;;;;;4931673;29;20039;-62
2021/10/08 16:34:28;;;;;;;13.95;4.90;;;;;;;;;;4931921;29;20028;-63
2021/10/08 16:36:59;;;;;;;14.10;5.57;;;;;;;;;;4931886;29;20035;-64
2021/10/08 16:39:26;;;;;;;13.05;4.95;;;;;;;;;;4932100;29;20024;-61
2021/10/08 16:41:52;;;;;;;15.50;5.68;;;;;;;;;;4931624;29;20028;-63
2021/10/08 16:44:19;;;;;;;13.93;5.50;;;;;;;;;;4932070;29;20043;-65
2021/10/08 16:46:45;;;;;;;16.65;5.57;;;;;;;;;;4931983;29;20697;-63
2021/10/08 16:49:11;;;;;;;14.52;6.05;;;;;;;;;;4931700;29;20034;-63
2021/10/08 16:51:38;;;;;;;18.83;6.32;;;;;;;;;;4931970;29;20122;-64
2021/10/08 16:54:07;;;;;;;13.38;6.47;;;;;;;;;;4931426;29;20016;-64
2021/10/08 16:56:33;;;;;;;17.40;6.88;;;;;;;;;;4931069;29;20042;-63
2021/10/08 16:58:59;;;;;;;17.42;8.05;;;;;;;;;;4931725;29;20015;-64
2021/10/08 17:01:26;;;;;;;20.55;7.55;;;;;;;;;;4932306;29;20046;-63
2021/10/08 17:03:52;;;;;;;17.02;8.30;;;;;;;;;;4931538;29;20031;-63
2021/10/08 17:06:18;;;;;;;17.48;7.30;;;;;;;;;;4933861;29;20052;-64
2021/10/08 17:08:44;;;;;;;16.67;8.00;;;;;;;;;;4935500;29;20114;-63
2021/10/08 17:11:10;;;;;;;18.33;7.53;;;;;;;;;;4935394;29;20039;-63
2021/10/08 17:13:36;;;;;;;20.08;8.27;;;;;;;;;;4935254;29;20027;-63
2021/10/08 17:16:03;;;;;;;20.08;8.70;;;;;;;;;;4932642;29;20030;-66
2021/10/08 17:18:29;;;;;;;16.10;7.30;;;;;;;;;;4935533;29;20083;-66
2021/10/08 17:20:57;;;;;;;17.48;7.05;;;;;;;;;;4935127;29;20475;-66
2021/10/08 17:23:25;;;;;;;19.05;7.43;;;;;;;;;;4925295;29;20071;-64
2021/10/08 17:25:57;;;;;;;17.48;7.05;;;;;;;;;;4934556;29;20500;-64
2021/10/08 17:28:42;;;;;;;10.47;4.83;;;;;;;;;;4934818;29;20070;-64
2021/10/08 17:31:32;;;;;;;17.20;8.13;;;;;;;;;;4931283;29;20345;-63
2021/10/08 17:33:58;;;;;;;18.58;7.40;;;;;;;;;;4930734;29;20020;-64
2021/10/08 17:36:25;;;;;;;20.63;6.25;;;;;;;;;;4934691;29;20143;-62
2021/10/08 17:38:52;;;;;;;19.33;6.70;;;;;;;;;;4935206;29;20043;-63
2021/10/08 17:41:19;;;;;;;16.80;7.82;;;;;;;;;;4936201;29;20047;-64
2021/10/08 17:43:45;;;;;;;20.75;7.72;;;;;;;;;;4935662;29;20032;-63
2021/10/08 17:46:11;;;;;;;17.33;7.47;;;;;;;;;;4936200;29;20088;-63
2021/10/08 17:48:40;;;;;;;15.35;5.90;;;;;;;;;;4936243;29;20063;-64
2021/10/08 17:51:06;;;;;;;17.27;6.93;;;;;;;;;;4935014;29;20040;-60
2021/10/08 17:53:32;;;;;;;19.38;7.38;;;;;;;;;;4934326;29;20028;-66
2021/10/08 17:56:05;;;;;;;16.42;7.07;;;;;;;;;;4934272;29;20488;-61
2021/10/08 17:58:32;;;;;;;15.52;7.63;;;;;;;;;;4931436;29;20035;-62
2021/10/08 18:01:05;;;;;;;17.63;6.72;;;;;;;;;;4935491;29;20502;-62
2021/10/08 18:03:32;;;;;;;15.88;6.70;;;;;;;;;;4922737;29;20028;-62
2021/10/08 18:05:59;;;;;;;19.75;7.40;;;;;;;;;;4933235;29;20021;-63
2021/10/08 18:08:25;;;;;;;12.43;6.10;;;;;;;;;;4933620;29;20038;-61
2021/10/08 18:10:52;;;;;;;15.93;6.45;;;;;;;;;;4932827;29;20399;-63
2021/10/08 18:13:18;;;;;;;19.23;6.82;;;;;;;;;;4933049;29;20024;-63
2021/10/08 18:15:44;;;;;;;18.60;6.43;;;;;;;;;;4932690;29;20539;-62
2021/10/08 18:18:11;;;;;;;15.95;6.03;;;;;;;;;;4919129;29;20545;-62
2021/10/08 18:20:37;;;;;;;13.80;5.78;;;;;;;;;;4932848;29;20130;-61
2021/10/08 18:23:03;;;;;;;12.93;5.57;;;;;;;;;;4933078;29;20015;-60
2021/10/08 18:25:29;;;;;;;19.92;6.00;;;;;;;;;;4932526;29;20104;-60
2021/10/08 18:27:55;;;;;;;14.63;5.57;;;;;;;;;;4933938;29;20044;-61
2021/10/08 18:30:26;;;;;;;13.73;6.07;;;;;;;;;;4934695;29;20039;-60
2021/10/08 18:32:52;;;;;;;18.27;6.18;;;;;;;;;;4934947;29;20111;-60
2021/10/08 18:35:18;;;;;;;12.48;5.60;;;;;;;;;;4935257;29;20031;-63
2021/10/08 18:37:45;;;;;;;12.68;6.20;;;;;;;;;;4934206;29;20571;-62
2021/10/08 18:40:11;;;;;;;21.05;6.28;;;;;;;;;;4935009;29;20027;-64
2021/10/08 18:42:37;;;;;;;14.32;5.70;;;;;;;;;;4934711;29;20035;-62
2021/10/08 18:45:07;;;;;;;15.52;5.82;;;;;;;;;;4934997;29;20019;-64
2021/10/08 18:47:34;;;;;;;16.80;6.30;;;;;;;;;;4935094;29;20036;-60
2021/10/08 18:50:00;;;;;;;20.45;6.70;;;;;;;;;;4934649;29;20468;-62
2021/10/08 18:52:27;;;;;;;13.55;5.50;;;;;;;;;;4934711;29;20047;-63
2021/10/08 18:54:54;;;;;;;16.10;5.80;;;;;;;;;;4934480;29;20028;-61
2021/10/08 18:57:20;;;;;;;12.27;5.22;;;;;;;;;;4917716;29;20107;-63
2021/10/08 18:59:46;;;;;;;12.02;4.80;;;;;;;;;;4935005;29;20062;-62
2021/10/08 19:02:13;;;;;;;10.40;5.28;;;;;;;;;;4934714;29;20492;-62
2021/10/08 19:04:39;;;;;;;14.77;5.40;;;;;;;;;;4934398;29;20044;-60
2021/10/08 19:07:07;;;;;;;14.18;5.40;;;;;;;;;;4934824;29;20487;-64
2021/10/08 19:09:37;;;;;;;11.60;4.85;;;;;;;;;;4934328;29;20063;-60
2021/10/08 19:12:08;;;;;;;12.30;5.38;;;;;;;;;;4934182;29;20055;-60
2021/10/08 19:14:57;;;;;;;10.02;4.80;;;;;;;;;;4934080;29;20023;-61
2021/10/08 19:20:06;;;;;;;13.65;5.43;;;;;;;;;;4934576;29;20143;-64
2021/10/08 19:22:32;;;;;;;11.77;5.60;;;;;;;;;;4934695;29;20083;-63
2021/10/08 19:24:58;;;;;;;12.63;5.60;;;;;;;;;;4933704;29;20052;-61
2021/10/08 19:27:24;;;;;;;15.30;5.40;;;;;;;;;;4933473;29;20066;-61
2021/10/08 19:29:54;;;;;;;12.82;5.43;;;;;;;;;;4933382;29;20024;-62
2021/10/08 19:32:20;;;;;;;18.17;6.43;;;;;;;;;;4933412;29;20032;-60
2021/10/08 19:34:46;;;;;;;12.75;5.40;;;;;;;;;;4934365;29;20463;-62
2021/10/08 19:37:12;;;;;;;13.10;5.32;;;;;;;;;;4933814;29;20492;-64
2021/10/08 19:39:40;;;;;;;9.70;5.07;;;;;;;;;;4933629;29;20016;-61
2021/10/08 19:42:11;;;;;;;12.05;5.18;;;;;;;;;;4934023;29;20106;-61
2021/10/08 19:44:43;;;;;;;12.68;4.60;;;;;;;;;;4933867;29;20032;-62
2021/10/08 19:47:10;;;;;;;10.27;4.68;;;;;;;;;;4933660;29;20023;-61
2021/10/08 19:49:36;;;;;;;9.52;4.05;;;;;;;;;;4933734;29;20522;-62
2021/10/08 19:52:05;;;;;;;14.52;4.68;;;;;;;;;;4934073;29;20139;-62
2021/10/08 19:54:34;;;;;;;7.75;3.92;;;;;;;;;;4933671;29;20050;-62
2021/10/08 19:57:01;;;;;;;10.30;3.75;;;;;;;;;;4933737;29;20027;-61
2021/10/08 19:59:27;;;;;;;9.88;3.92;;;;;;;;;;4933608;29;20079;-63
2021/10/08 20:01:53;;;;;;;8.73;4.18;;;;;;;;;;4933909;29;20063;-64
2021/10/08 20:04:23;;;;;;;11.15;4.05;;;;;;;;;;4933843;29;20023;-66
2021/10/08 20:12:01;;;;;;;6.38;2.90;;;;;;;;;;4933954;29;20034;-69
2021/10/08 20:14:57;;;;;;;7.13;3.70;;;;;;;;;;4933407;29;20368;-64
2021/10/08 20:17:23;;;;;;;7.75;3.72;;;;;;;;;;4933719;29;20035;-64
2021/10/08 20:19:49;;;;;;;10.75;3.90;;;;;;;;;;4933119;29;20042;-66
2021/10/08 20:22:16;;;;;;;10.80;4.07;;;;;;;;;;4933309;29;20229;-63
2021/10/08 20:24:42;;;;;;;10.18;4.60;;;;;;;;;;4932963;29;20497;-66
2021/10/08 20:27:08;;;;;;;9.52;3.30;;;;;;;;;;4933002;29;20062;-65
2021/10/08 20:29:35;;;;;;;13.15;3.67;;;;;;;;;;4933295;29;20087;-68
2021/10/08 20:32:01;;;;;;;12.13;4.22;;;;;;;;;;4933289;29;20126;-62